Startpagina
METAR-TAF:

METAR-TAF

Vliegvelden :

Internationale luchthaven van Bahrein

Bahrein, Bahrein

breedte: 26-16N, lengte: 050-39E, hoogte: 2 m

Actueel weer

Dit bericht is 33 minuten geleden gemaakt, om 23:00 UTC
Wind 4 kt uit het noordwesten, variërend tussen het westen en het oostnoordoosten
Temperatuur 31°C
Vochtigheid 46%
Druk 1004 hPa
Zicht 10 km of meer
geen wolken onder 1500 m en geen cumulonimbus

METAR: OBBI 262300Z 32004KT 280V060 CAVOK 31/18 Q1004 NOSIG

Tijdstip: 02:33 (23:33 UTC)

Verwachting

Dit bericht is 6 uur en het 33 minuten geleden gemaakt, om 17:00 UTC
Verwachting geldig van 26 om 18 UTC tot 28 om 00 UTC
Wind 5 kt uit variabele richting
Zicht 10 km of meer
geen wolken onder 1500 m en geen cumulonimbus

TAF: OBBI 261700Z 2618/2800 VRB05KT CAVOK

Waarnemingen en weersverwachtingen van meer dan 4000 vliegvelden (METAR en TAF).

De beschikbare stations zijn de gele en rode punten op de kaart.

Ga met uw muis naar het station om de naam te zien.

Klik dan om waarnemingen en weersverwachtingen te zien.

kaart wijzigen: klik op de groene knoppen met een zwart kruis om in te zoomen, op de groene knop met een streepje om uit te zoomen of op de groene pijlen voor aangrenzende kaarten.


METAR-TAF: